createdAt,value
2022-08-28T00:00:45.658Z,23.67
2022-08-28T00:04:38.410Z,23.49
2022-08-28T00:08:31.814Z,23.45
2022-08-28T00:12:24.295Z,23.38
2022-08-28T00:16:18.852Z,23.42
2022-08-28T00:20:18.710Z,23.46
2022-08-28T00:24:12.028Z,23.39
2022-08-28T00:28:10.490Z,23.27
2022-08-28T00:32:06.507Z,23.27
2022-08-28T00:36:01.217Z,23.33
2022-08-28T00:39:53.973Z,23.20
2022-08-28T00:43:49.539Z,23.22
2022-08-28T00:47:42.326Z,23.26
2022-08-28T00:51:54.663Z,23.20
2022-08-28T00:55:47.827Z,23.11
2022-08-28T00:59:40.748Z,22.95
2022-08-28T01:03:33.264Z,22.98
2022-08-28T01:07:26.533Z,23.06
2022-08-28T01:11:20.409Z,23.20
2022-08-28T01:15:17.596Z,23.16
2022-08-28T01:19:17.380Z,23.02
2022-08-28T01:23:51.747Z,23.04
2022-08-28T01:27:44.431Z,23.01
2022-08-28T01:31:38.184Z,22.41
2022-08-28T01:35:35.153Z,22.57
2022-08-28T01:39:29.784Z,22.41
2022-08-28T01:43:24.523Z,22.37
2022-08-28T01:47:17.053Z,22.14
2022-08-28T01:51:11.463Z,22.13
2022-08-28T01:55:06.354Z,22.35
2022-08-28T01:59:02.543Z,22.32
2022-08-28T02:02:57.505Z,21.91
2022-08-28T02:06:50.893Z,21.95
2022-08-28T02:10:43.869Z,21.65
2022-08-28T02:14:36.509Z,21.51
2022-08-28T02:18:29.105Z,21.54
2022-08-28T02:22:21.735Z,21.53
2022-08-28T02:26:14.850Z,21.74
2022-08-28T02:30:10.150Z,21.40
2022-08-28T02:34:03.019Z,21.41
2022-08-28T02:37:55.678Z,21.38
2022-08-28T02:41:48.791Z,21.43
2022-08-28T02:45:41.502Z,21.67
2022-08-28T02:49:36.367Z,22.05
2022-08-28T02:53:30.123Z,22.23
2022-08-28T02:57:22.659Z,22.08
2022-08-28T03:01:15.675Z,22.17
2022-08-28T03:05:09.843Z,21.99
2022-08-28T03:09:02.840Z,21.82
2022-08-28T03:12:55.375Z,20.88
2022-08-28T03:16:48.481Z,20.67
2022-08-28T03:20:42.177Z,20.85
2022-08-28T03:24:50.339Z,20.82
2022-08-28T03:28:50.862Z,20.89
2022-08-28T03:32:43.594Z,21.13
2022-08-28T03:36:36.049Z,21.30
2022-08-28T03:40:28.658Z,21.61
2022-08-28T03:44:21.161Z,21.64
2022-08-28T03:48:14.025Z,21.67
2022-08-28T03:52:06.688Z,21.84
2022-08-28T03:55:59.408Z,21.86
2022-08-28T03:59:53.811Z,21.82
2022-08-28T04:03:47.106Z,21.84
2022-08-28T04:07:40.279Z,21.57
2022-08-28T04:11:38.285Z,21.40
2022-08-28T04:15:30.739Z,21.37
2022-08-28T04:19:23.601Z,21.46
2022-08-28T04:23:16.175Z,21.34
2022-08-28T04:27:08.609Z,21.14
2022-08-28T04:31:01.402Z,20.95
2022-08-28T04:34:54.088Z,20.98
2022-08-28T04:38:46.737Z,20.83
2022-08-28T04:42:40.326Z,20.81
2022-08-28T04:46:32.987Z,20.65
2022-08-28T04:50:25.586Z,21.00
2022-08-28T04:54:18.160Z,21.13
2022-08-28T04:58:10.826Z,21.43
2022-08-28T05:02:03.941Z,21.24
2022-08-28T05:05:56.623Z,21.16
2022-08-28T05:09:53.599Z,20.40
2022-08-28T05:13:46.130Z,20.01
2022-08-28T05:17:38.527Z,20.41
2022-08-28T05:21:31.368Z,20.92
2022-08-28T05:25:23.843Z,21.19
2022-08-28T05:29:17.134Z,20.76
2022-08-28T05:33:11.475Z,20.96
2022-08-28T05:37:06.835Z,20.67
2022-08-28T05:40:59.311Z,20.73
2022-08-28T05:44:54.671Z,20.82
2022-08-28T05:48:49.493Z,20.73
2022-08-28T05:52:43.261Z,20.54
2022-08-28T05:56:44.759Z,20.56
2022-08-28T06:00:37.367Z,20.35
2022-08-28T06:04:30.229Z,20.18
2022-08-28T06:08:23.406Z,20.58
2022-08-28T06:12:16.821Z,20.89
2022-08-28T06:16:11.962Z,20.81
2022-08-28T06:20:04.784Z,21.02
2022-08-28T06:23:57.456Z,21.10
2022-08-28T06:27:49.830Z,21.04
2022-08-28T06:31:42.530Z,21.26
2022-08-28T06:35:39.944Z,21.64
2022-08-28T06:39:32.337Z,21.77
2022-08-28T06:43:27.587Z,22.71
2022-08-28T06:47:19.952Z,23.88
2022-08-28T06:51:13.056Z,24.60
2022-08-28T06:55:05.863Z,24.93
2022-08-28T06:58:59.487Z,25.22
2022-08-28T07:02:51.859Z,25.08
2022-08-28T07:06:53.790Z,24.94
2022-08-28T07:10:47.615Z,24.69
2022-08-28T07:14:39.966Z,24.33
2022-08-28T07:18:32.473Z,24.87
2022-08-28T07:22:26.691Z,25.43
2022-08-28T07:26:23.423Z,25.41
2022-08-28T07:30:16.059Z,25.27
2022-08-28T07:34:10.051Z,25.87
2022-08-28T07:38:02.960Z,25.87
2022-08-28T07:41:55.445Z,25.76
2022-08-28T07:45:48.729Z,25.61
2022-08-28T07:49:41.820Z,25.89
2022-08-28T07:53:36.468Z,26.52
2022-08-28T07:57:29.699Z,26.55
2022-08-28T08:01:22.328Z,26.62
2022-08-28T08:05:15.002Z,26.80
2022-08-28T08:09:09.981Z,26.96
2022-08-28T08:13:02.474Z,27.02
2022-08-28T08:16:55.211Z,26.93
2022-08-28T08:20:47.822Z,26.49
2022-08-28T08:24:40.233Z,26.63
2022-08-28T08:28:35.459Z,27.11
2022-08-28T08:32:27.915Z,27.45
2022-08-28T08:36:23.340Z,27.44
2022-08-28T08:40:19.331Z,27.54
2022-08-28T08:44:45.311Z,27.48
2022-08-28T08:48:41.217Z,27.57
2022-08-28T08:52:59.887Z,27.52
2022-08-28T08:56:56.066Z,27.78
2022-08-28T09:00:54.847Z,27.73
2022-08-28T09:04:55.980Z,27.72
2022-08-28T09:08:56.931Z,27.71
2022-08-28T09:12:59.941Z,27.88
2022-08-28T09:16:53.061Z,27.89
2022-08-28T09:20:53.155Z,27.90
2022-08-28T09:24:45.753Z,27.02
2022-08-28T09:28:41.241Z,27.15
2022-08-28T09:32:44.403Z,27.11
2022-08-28T09:36:38.547Z,27.57
2022-08-28T09:40:52.051Z,27.73
2022-08-28T09:44:51.935Z,27.54
2022-08-28T09:48:47.797Z,27.61
2022-08-28T09:52:40.240Z,27.84
2022-08-28T09:56:35.817Z,28.09
2022-08-28T10:00:34.096Z,28.18
2022-08-28T10:04:50.165Z,28.03
2022-08-28T10:08:58.271Z,27.85
2022-08-28T10:13:11.819Z,27.97
2022-08-28T10:17:10.267Z,28.23
2022-08-28T10:21:05.564Z,28.12
2022-08-28T10:25:10.094Z,28.03
2022-08-28T10:29:42.435Z,28.14
2022-08-28T10:33:53.686Z,27.88
2022-08-28T10:38:14.256Z,27.59
2022-08-28T10:42:07.648Z,27.48
2022-08-28T10:46:04.265Z,27.81
2022-08-28T10:50:02.066Z,27.72
2022-08-28T10:53:58.400Z,28.27
2022-08-28T10:57:52.151Z,27.95
2022-08-28T11:01:46.363Z,27.90
2022-08-28T11:05:55.068Z,28.03
2022-08-28T11:09:49.100Z,28.27
2022-08-28T11:13:45.208Z,28.14
2022-08-28T11:17:41.724Z,28.33
2022-08-28T11:21:45.011Z,28.44
2022-08-28T11:25:50.277Z,28.16
2022-08-28T11:30:00.224Z,27.97
2022-08-28T11:33:53.171Z,27.97
2022-08-28T11:37:48.897Z,27.89
2022-08-28T11:42:20.197Z,27.69
2022-08-28T11:46:12.707Z,27.84
2022-08-28T11:50:27.463Z,27.79
2022-08-28T11:54:38.161Z,28.02
2022-08-28T11:58:46.408Z,28.13
2022-08-28T12:02:41.649Z,28.37
2022-08-28T12:06:52.291Z,28.57
2022-08-28T12:10:48.359Z,28.48
2022-08-28T12:14:40.969Z,28.57
2022-08-28T12:18:53.692Z,28.61
2022-08-28T12:22:53.235Z,28.68
2022-08-28T12:26:51.794Z,28.87
2022-08-28T12:30:56.150Z,28.60
2022-08-28T12:34:58.616Z,28.65
2022-08-28T12:38:52.226Z,28.71
2022-08-28T12:42:56.819Z,28.28
2022-08-28T12:46:49.603Z,28.10
2022-08-28T12:50:42.352Z,28.36
2022-08-28T12:54:35.535Z,28.27
2022-08-28T12:58:39.552Z,28.50
2022-08-28T13:02:34.005Z,28.76
2022-08-28T13:06:28.977Z,28.58
2022-08-28T14:55:32.873Z,28.71
2022-08-28T14:59:27.693Z,28.51
2022-08-28T15:03:20.473Z,28.41
2022-08-28T15:07:13.474Z,28.48
2022-08-28T15:11:16.548Z,28.18
2022-08-28T15:15:11.262Z,28.24
2022-08-28T15:19:04.531Z,28.32
2022-08-28T15:22:57.032Z,28.36
2022-08-28T15:26:49.674Z,28.26
2022-08-28T15:30:43.622Z,28.17
2022-08-28T15:34:36.073Z,28.16
2022-08-28T15:38:28.622Z,28.06
2022-08-28T15:42:21.202Z,28.13
2022-08-28T15:46:14.230Z,28.12
2022-08-28T15:50:07.583Z,28.14
2022-08-28T15:54:03.882Z,27.95
2022-08-28T15:57:57.173Z,28.06
2022-08-28T16:01:50.189Z,27.88
2022-08-28T16:05:42.771Z,27.99
2022-08-28T16:09:35.179Z,27.93
2022-08-28T16:13:27.781Z,27.86
2022-08-28T16:17:20.181Z,27.69
2022-08-28T16:21:13.674Z,27.71
2022-08-28T16:25:07.166Z,27.66
2022-08-28T16:29:00.092Z,27.57
2022-08-28T16:35:56.842Z,27.42
2022-08-28T16:37:05.909Z,27.50
2022-08-28T16:41:00.879Z,27.48
2022-08-28T16:44:59.891Z,27.30
2022-08-28T16:48:53.149Z,27.29
2022-08-28T16:52:46.669Z,27.30
2022-08-28T16:56:40.166Z,27.15
2022-08-28T17:00:33.571Z,27.17
2022-08-28T17:04:26.346Z,27.21
2022-08-28T17:08:19.964Z,27.15
2022-08-28T17:12:12.401Z,27.13
2022-08-28T17:16:06.215Z,27.07
2022-08-28T17:19:58.761Z,26.80
2022-08-28T17:23:51.275Z,26.79
2022-08-28T17:27:43.971Z,26.72
2022-08-28T17:31:37.074Z,26.60
2022-08-28T17:35:29.668Z,26.59
2022-08-28T17:39:22.478Z,26.62
2022-08-28T17:43:15.134Z,26.53
2022-08-28T17:47:07.753Z,26.35
2022-08-28T17:51:02.124Z,26.52
2022-08-28T17:54:55.185Z,26.51
2022-08-28T17:58:47.646Z,26.41
2022-08-28T18:02:40.720Z,26.35
2022-08-28T18:06:33.956Z,26.25
2022-08-28T18:10:26.883Z,26.28
2022-08-28T18:14:19.820Z,26.20
2022-08-28T18:18:15.458Z,26.24
2022-08-28T18:22:11.118Z,26.20
2022-08-28T18:26:04.129Z,26.11
2022-08-28T18:29:56.695Z,25.96
2022-08-28T18:33:50.008Z,26.03
2022-08-28T18:37:42.828Z,25.98
2022-08-28T18:41:43.537Z,26.00
2022-08-28T18:45:37.764Z,26.03
2022-08-28T18:49:30.583Z,25.83
2022-08-28T18:53:24.347Z,25.83
2022-08-28T18:57:19.083Z,25.89
2022-08-28T19:01:12.135Z,25.70
2022-08-28T19:05:06.544Z,25.83
2022-08-28T19:08:59.596Z,25.73
2022-08-28T19:12:52.619Z,25.48
2022-08-28T19:16:46.078Z,25.37
2022-08-28T19:20:38.980Z,25.32
2022-08-28T19:24:34.142Z,25.11
2022-08-28T19:28:28.410Z,25.08
2022-08-28T19:32:25.320Z,25.01
2022-08-28T19:36:22.374Z,24.95
2022-08-28T19:40:15.420Z,24.93
2022-08-28T19:44:08.347Z,25.04
2022-08-28T19:48:03.131Z,25.11
2022-08-28T19:51:56.019Z,24.97
2022-08-28T19:55:49.190Z,24.97
2022-08-28T19:59:42.070Z,24.69
2022-08-28T20:03:41.841Z,24.46
2022-08-28T20:07:34.649Z,24.45
2022-08-28T20:11:30.240Z,24.46
2022-08-28T20:15:24.502Z,24.28
2022-08-28T20:19:19.367Z,24.32
2022-08-28T20:23:12.723Z,24.08
2022-08-28T20:27:05.887Z,24.14
2022-08-28T20:30:58.939Z,24.18
2022-08-28T20:34:51.441Z,24.19
2022-08-28T20:38:43.891Z,24.12
2022-08-28T20:42:36.437Z,24.02
2022-08-28T20:46:32.089Z,24.21
2022-08-28T20:50:24.706Z,24.05
2022-08-28T20:54:17.182Z,24.00
2022-08-28T20:58:09.598Z,24.01
2022-08-28T21:02:05.208Z,24.01
2022-08-28T21:05:57.794Z,23.88
2022-08-28T21:10:06.047Z,23.91
2022-08-28T21:14:00.210Z,23.87
2022-08-28T21:17:52.846Z,24.00
2022-08-28T21:21:45.569Z,23.64
2022-08-28T21:25:40.582Z,23.69
2022-08-28T21:29:32.996Z,23.60
2022-08-28T21:33:25.458Z,23.39
2022-08-28T21:37:17.993Z,23.32
2022-08-28T21:41:13.417Z,23.25
2022-08-28T21:45:11.743Z,23.19
2022-08-28T21:49:04.693Z,23.09
2022-08-28T21:52:57.266Z,23.26
2022-08-28T21:56:50.654Z,23.30
2022-08-28T22:00:56.978Z,23.32
2022-08-28T22:04:49.665Z,22.98
2022-08-28T22:08:42.938Z,22.88
2022-08-28T22:12:36.253Z,23.14
2022-08-28T22:16:29.841Z,22.98
2022-08-28T22:20:22.405Z,22.88
2022-08-28T22:24:14.998Z,23.02
2022-08-28T22:28:08.526Z,23.14
2022-08-28T22:32:01.131Z,22.94
2022-08-28T22:35:54.205Z,22.81
2022-08-28T22:39:46.661Z,22.70
2022-08-28T22:43:39.991Z,22.84
2022-08-28T22:47:32.993Z,22.81
2022-08-28T22:51:25.574Z,22.77
2022-08-28T22:55:20.383Z,22.68
2022-08-28T22:59:12.973Z,22.70
2022-08-28T23:03:05.636Z,22.68
2022-08-28T23:06:58.422Z,22.58
2022-08-28T23:10:59.341Z,22.53
2022-08-28T23:14:53.558Z,22.46
2022-08-28T23:19:06.645Z,22.37
2022-08-28T23:22:58.962Z,22.43
2022-08-28T23:26:51.646Z,22.50
2022-08-28T23:30:48.613Z,22.53
2022-08-28T23:34:42.543Z,22.40
2022-08-28T23:38:43.159Z,22.20
2022-08-28T23:42:36.132Z,22.35
2022-08-28T23:46:28.698Z,22.20
2022-08-28T23:50:22.679Z,22.13
2022-08-28T23:54:15.207Z,22.09
2022-08-28T23:58:08.109Z,22.02
